Terminal Aerodrome Forecast
Issued by NWS

Home | Current Version | Previous Version | Text Only | Print | Product List | Glossary On
Versions: 1 2 3 4 5 6 7 8 9 10 11 12 13 14 15 16 17 18 19 20 21 22 23 24
000
FTUS44 KHGX 031729
TAFIAH
TAF
KIAH 031729Z 0318/0424 36011KT 6SM -RA BR VCSH SCT005 BKN008 OVC025
      TEMPO 0318/0320 OVC005
     FM040000 01007KT 4SM -SHRA SCT004 BKN007 OVC012
     FM040800 36009KT 3SM SHRA VCTS OVC007CB=

USA.gov is the U.S. government's official web portal to all federal, state and local government web resources and services.